sensor_id;sensor_type;location;lat;lon;timestamp;temperature;humidity
10678;DHT22;5387;48.722;9.110;2022-08-11T00:01:07;16.00;99.90
10678;DHT22;5387;48.722;9.110;2022-08-11T00:03:35;16.00;99.90
10678;DHT22;5387;48.722;9.110;2022-08-11T00:06:07;15.90;99.90
10678;DHT22;5387;48.722;9.110;2022-08-11T00:08:35;15.80;99.90
10678;DHT22;5387;48.722;9.110;2022-08-11T00:11:07;15.80;99.90
10678;DHT22;5387;48.722;9.110;2022-08-11T00:13:36;15.70;99.90
10678;DHT22;5387;48.722;9.110;2022-08-11T00:16:10;15.70;99.90
10678;DHT22;5387;48.722;9.110;2022-08-11T00:18:41;15.70;99.90
10678;DHT22;5387;48.722;9.110;2022-08-11T00:21:10;15.70;99.90
10678;DHT22;5387;48.722;9.110;2022-08-11T00:23:42;15.60;99.90
10678;DHT22;5387;48.722;9.110;2022-08-11T00:26:11;15.60;99.90
10678;DHT22;5387;48.722;9.110;2022-08-11T00:28:39;15.60;99.90
10678;DHT22;5387;48.722;9.110;2022-08-11T00:31:18;15.50;99.90
10678;DHT22;5387;48.722;9.110;2022-08-11T00:33:46;15.60;99.90
10678;DHT22;5387;48.722;9.110;2022-08-11T00:36:16;15.70;99.90
10678;DHT22;5387;48.722;9.110;2022-08-11T00:38:45;15.80;99.90
10678;DHT22;5387;48.722;9.110;2022-08-11T00:41:22;15.80;99.90
10678;DHT22;5387;48.722;9.110;2022-08-11T00:44:06;15.80;99.90
10678;DHT22;5387;48.722;9.110;2022-08-11T00:46:44;15.90;99.90
10678;DHT22;5387;48.722;9.110;2022-08-11T00:49:19;15.90;99.90
10678;DHT22;5387;48.722;9.110;2022-08-11T00:51:58;15.90;99.90
10678;DHT22;5387;48.722;9.110;2022-08-11T00:54:45;15.90;99.90
10678;DHT22;5387;48.722;9.110;2022-08-11T01:00:31;15.80;99.90
10678;DHT22;5387;48.722;9.110;2022-08-11T01:03:15;15.80;99.90
10678;DHT22;5387;48.722;9.110;2022-08-11T01:05:55;15.70;99.90
10678;DHT22;5387;48.722;9.110;2022-08-11T01:11:45;15.60;99.90
10678;DHT22;5387;48.722;9.110;2022-08-11T01:14:39;15.50;99.90
10678;DHT22;5387;48.722;9.110;2022-08-11T01:21:02;15.30;99.90
10678;DHT22;5387;48.722;9.110;2022-08-11T01:33:38;15.20;99.90
10678;DHT22;5387;48.722;9.110;2022-08-11T01:36:49;15.10;99.90
10678;DHT22;5387;48.722;9.110;2022-08-11T01:39:46;15.00;99.90
10678;DHT22;5387;48.722;9.110;2022-08-11T01:45:36;14.80;99.90
10678;DHT22;5387;48.722;9.110;2022-08-11T01:48:12;14.90;99.90
10678;DHT22;5387;48.722;9.110;2022-08-11T01:50:53;14.90;99.90
10678;DHT22;5387;48.722;9.110;2022-08-11T01:53:30;15.10;99.90
10678;DHT22;5387;48.722;9.110;2022-08-11T01:56:09;15.10;99.90
10678;DHT22;5387;48.722;9.110;2022-08-11T01:58:44;15.20;99.90
10678;DHT22;5387;48.722;9.110;2022-08-11T02:01:26;15.10;99.90
10678;DHT22;5387;48.722;9.110;2022-08-11T02:03:57;15.20;99.90
10678;DHT22;5387;48.722;9.110;2022-08-11T02:06:29;15.30;99.90
10678;DHT22;5387;48.722;9.110;2022-08-11T02:09:37;15.30;99.90
10678;DHT22;5387;48.722;9.110;2022-08-11T02:12:14;15.40;99.90
10678;DHT22;5387;48.722;9.110;2022-08-11T02:14:46;15.40;99.90
10678;DHT22;5387;48.722;9.110;2022-08-11T02:17:18;15.40;99.90
10678;DHT22;5387;48.722;9.110;2022-08-11T02:19:56;15.30;99.90
10678;DHT22;5387;48.722;9.110;2022-08-11T02:22:50;15.30;99.90
10678;DHT22;5387;48.722;9.110;2022-08-11T02:25:45;15.30;99.90
10678;DHT22;5387;48.722;9.110;2022-08-11T02:28:21;15.20;99.90
10678;DHT22;5387;48.722;9.110;2022-08-11T02:31:01;15.10;99.90
10678;DHT22;5387;48.722;9.110;2022-08-11T02:33:47;15.10;99.90
10678;DHT22;5387;48.722;9.110;2022-08-11T02:36:23;15.10;99.90
10678;DHT22;5387;48.722;9.110;2022-08-11T02:38:54;15.00;99.90
10678;DHT22;5387;48.722;9.110;2022-08-11T02:41:35;14.90;99.90
10678;DHT22;5387;48.722;9.110;2022-08-11T02:44:28;14.90;99.90
10678;DHT22;5387;48.722;9.110;2022-08-11T02:47:06;14.80;99.90
10678;DHT22;5387;48.722;9.110;2022-08-11T02:49:43;14.80;99.90
10678;DHT22;5387;48.722;9.110;2022-08-11T02:52:32;14.70;99.90
10678;DHT22;5387;48.722;9.110;2022-08-11T02:55:13;14.60;99.90
10678;DHT22;5387;48.722;9.110;2022-08-11T02:57:50;14.60;99.90
10678;DHT22;5387;48.722;9.110;2022-08-11T03:00:19;14.60;99.90
10678;DHT22;5387;48.722;9.110;2022-08-11T03:03:07;14.60;99.90
10678;DHT22;5387;48.722;9.110;2022-08-11T03:05:59;14.60;99.90
10678;DHT22;5387;48.722;9.110;2022-08-11T03:08:58;14.60;99.90
10678;DHT22;5387;48.722;9.110;2022-08-11T03:11:41;14.60;99.90
10678;DHT22;5387;48.722;9.110;2022-08-11T03:14:36;14.60;99.90
10678;DHT22;5387;48.722;9.110;2022-08-11T03:17:29;14.70;99.90
10678;DHT22;5387;48.722;9.110;2022-08-11T03:20:10;14.60;99.90
10678;DHT22;5387;48.722;9.110;2022-08-11T03:22:50;14.70;99.90
10678;DHT22;5387;48.722;9.110;2022-08-11T03:25:23;14.70;99.90
10678;DHT22;5387;48.722;9.110;2022-08-11T03:28:00;14.70;99.90
10678;DHT22;5387;48.722;9.110;2022-08-11T03:30:38;14.80;99.90
10678;DHT22;5387;48.722;9.110;2022-08-11T03:33:17;14.80;99.90
10678;DHT22;5387;48.722;9.110;2022-08-11T03:36:09;14.80;99.90
10678;DHT22;5387;48.722;9.110;2022-08-11T03:38:54;14.70;99.90
10678;DHT22;5387;48.722;9.110;2022-08-11T03:41:31;14.70;99.90
10678;DHT22;5387;48.722;9.110;2022-08-11T03:44:22;14.70;99.90
10678;DHT22;5387;48.722;9.110;2022-08-11T03:47:17;14.60;99.90
10678;DHT22;5387;48.722;9.110;2022-08-11T03:50:03;14.60;99.90
10678;DHT22;5387;48.722;9.110;2022-08-11T03:52:50;14.50;99.90
10678;DHT22;5387;48.722;9.110;2022-08-11T03:55:31;14.40;99.90
10678;DHT22;5387;48.722;9.110;2022-08-11T03:58:37;14.40;99.90
10678;DHT22;5387;48.722;9.110;2022-08-11T04:20:52;14.10;99.90
10678;DHT22;5387;48.722;9.110;2022-08-11T04:23:49;14.10;99.90
10678;DHT22;5387;48.722;9.110;2022-08-11T04:26:52;14.00;99.90
10678;DHT22;5387;48.722;9.110;2022-08-11T04:29:34;14.10;99.90
10678;DHT22;5387;48.722;9.110;2022-08-11T04:35:10;14.00;99.90
10678;DHT22;5387;48.722;9.110;2022-08-11T04:37:58;14.00;99.90
10678;DHT22;5387;48.722;9.110;2022-08-11T04:40:54;14.00;99.90
10678;DHT22;5387;48.722;9.110;2022-08-11T04:43:55;14.00;99.90
10678;DHT22;5387;48.722;9.110;2022-08-11T04:46:56;14.20;99.90
10678;DHT22;5387;48.722;9.110;2022-08-11T04:49:51;14.30;99.90
10678;DHT22;5387;48.722;9.110;2022-08-11T04:53:05;14.40;99.90
10678;DHT22;5387;48.722;9.110;2022-08-11T04:56:04;14.50;99.90
10678;DHT22;5387;48.722;9.110;2022-08-11T04:59:31;14.60;99.90
10678;DHT22;5387;48.722;9.110;2022-08-11T05:05:35;14.90;99.90
10678;DHT22;5387;48.722;9.110;2022-08-11T05:11:33;15.10;99.90
10678;DHT22;5387;48.722;9.110;2022-08-11T05:14:25;15.20;99.90
10678;DHT22;5387;48.722;9.110;2022-08-11T05:17:13;15.40;99.90
10678;DHT22;5387;48.722;9.110;2022-08-11T05:19:58;15.50;99.90
10678;DHT22;5387;48.722;9.110;2022-08-11T05:22:47;15.60;99.90
10678;DHT22;5387;48.722;9.110;2022-08-11T05:25:34;15.60;99.90
10678;DHT22;5387;48.722;9.110;2022-08-11T05:28:30;15.70;99.90
10678;DHT22;5387;48.722;9.110;2022-08-11T05:31:17;15.90;99.90
10678;DHT22;5387;48.722;9.110;2022-08-11T05:34:09;16.10;99.90
10678;DHT22;5387;48.722;9.110;2022-08-11T05:36:59;16.20;99.90
10678;DHT22;5387;48.722;9.110;2022-08-11T05:39:37;16.40;99.90
10678;DHT22;5387;48.722;9.110;2022-08-11T05:42:23;16.40;99.90
10678;DHT22;5387;48.722;9.110;2022-08-11T05:45:12;16.50;99.90
10678;DHT22;5387;48.722;9.110;2022-08-11T05:47:57;16.70;99.90
10678;DHT22;5387;48.722;9.110;2022-08-11T05:50:50;16.80;99.90
10678;DHT22;5387;48.722;9.110;2022-08-11T05:53:43;17.00;99.90
10678;DHT22;5387;48.722;9.110;2022-08-11T05:56:31;17.20;99.90
10678;DHT22;5387;48.722;9.110;2022-08-11T05:58:59;17.40;99.90
10678;DHT22;5387;48.722;9.110;2022-08-11T06:01:30;17.50;99.90
10678;DHT22;5387;48.722;9.110;2022-08-11T06:04:05;17.60;99.90
10678;DHT22;5387;48.722;9.110;2022-08-11T06:06:50;17.90;99.90
10678;DHT22;5387;48.722;9.110;2022-08-11T06:09:30;18.10;99.90
10678;DHT22;5387;48.722;9.110;2022-08-11T06:12:01;18.30;99.90
10678;DHT22;5387;48.722;9.110;2022-08-11T06:14:29;18.50;99.90
10678;DHT22;5387;48.722;9.110;2022-08-11T06:17:00;18.70;99.90
10678;DHT22;5387;48.722;9.110;2022-08-11T06:19:35;18.90;99.90
10678;DHT22;5387;48.722;9.110;2022-08-11T06:22:04;19.00;99.90
10678;DHT22;5387;48.722;9.110;2022-08-11T06:24:33;19.10;99.90
10678;DHT22;5387;48.722;9.110;2022-08-11T06:27:02;19.20;99.90
10678;DHT22;5387;48.722;9.110;2022-08-11T06:29:31;19.30;99.90
10678;DHT22;5387;48.722;9.110;2022-08-11T06:32:01;19.40;99.90
10678;DHT22;5387;48.722;9.110;2022-08-11T06:34:39;19.40;99.90
10678;DHT22;5387;48.722;9.110;2022-08-11T06:37:19;19.60;99.60
10678;DHT22;5387;48.722;9.110;2022-08-11T06:39:53;19.60;99.90
10678;DHT22;5387;48.722;9.110;2022-08-11T06:42:33;19.70;98.00
10678;DHT22;5387;48.722;9.110;2022-08-11T06:45:11;19.70;98.10
10678;DHT22;5387;48.722;9.110;2022-08-11T06:47:44;19.80;98.20
10678;DHT22;5387;48.722;9.110;2022-08-11T06:50:16;19.90;98.40
10678;DHT22;5387;48.722;9.110;2022-08-11T06:53:03;20.00;96.60
10678;DHT22;5387;48.722;9.110;2022-08-11T06:55:34;20.00;97.70
10678;DHT22;5387;48.722;9.110;2022-08-11T06:58:20;20.10;96.20
10678;DHT22;5387;48.722;9.110;2022-08-11T07:01:08;20.20;96.70
10678;DHT22;5387;48.722;9.110;2022-08-11T07:03:43;20.20;96.10
10678;DHT22;5387;48.722;9.110;2022-08-11T07:06:27;20.30;94.90
10678;DHT22;5387;48.722;9.110;2022-08-11T07:09:19;20.20;94.70
10678;DHT22;5387;48.722;9.110;2022-08-11T07:12:38;20.30;95.80
10678;DHT22;5387;48.722;9.110;2022-08-11T07:15:27;20.40;95.30
10678;DHT22;5387;48.722;9.110;2022-08-11T07:18:11;20.50;94.30
10678;DHT22;5387;48.722;9.110;2022-08-11T07:21:06;20.70;94.50
10678;DHT22;5387;48.722;9.110;2022-08-11T07:24:10;20.90;94.70
10678;DHT22;5387;48.722;9.110;2022-08-11T07:26:57;21.00;93.70
10678;DHT22;5387;48.722;9.110;2022-08-11T07:29:45;21.10;92.80
10678;DHT22;5387;48.722;9.110;2022-08-11T07:32:19;21.10;93.10
10678;DHT22;5387;48.722;9.110;2022-08-11T07:34:50;21.20;92.70
10678;DHT22;5387;48.722;9.110;2022-08-11T07:37:22;21.30;92.40
10678;DHT22;5387;48.722;9.110;2022-08-11T07:39:50;21.40;92.20
10678;DHT22;5387;48.722;9.110;2022-08-11T07:42:22;21.50;91.90
10678;DHT22;5387;48.722;9.110;2022-08-11T07:44:49;21.60;92.20
10678;DHT22;5387;48.722;9.110;2022-08-11T07:47:36;21.70;91.50
10678;DHT22;5387;48.722;9.110;2022-08-11T07:50:23;21.80;91.60
10678;DHT22;5387;48.722;9.110;2022-08-11T07:53:09;21.90;90.10
10678;DHT22;5387;48.722;9.110;2022-08-11T07:55:37;22.00;90.70
10678;DHT22;5387;48.722;9.110;2022-08-11T07:58:05;22.00;89.20
10678;DHT22;5387;48.722;9.110;2022-08-11T08:00:51;22.00;87.30
10678;DHT22;5387;48.722;9.110;2022-08-11T08:03:37;22.20;87.80
10678;DHT22;5387;48.722;9.110;2022-08-11T08:06:22;22.20;87.50
10678;DHT22;5387;48.722;9.110;2022-08-11T08:09:09;22.30;85.80
10678;DHT22;5387;48.722;9.110;2022-08-11T08:11:54;22.40;85.20
10678;DHT22;5387;48.722;9.110;2022-08-11T08:14:39;22.60;85.60
10678;DHT22;5387;48.722;9.110;2022-08-11T08:17:24;22.60;85.30
10678;DHT22;5387;48.722;9.110;2022-08-11T08:20:12;22.70;85.40
10678;DHT22;5387;48.722;9.110;2022-08-11T08:22:41;22.80;85.00
10678;DHT22;5387;48.722;9.110;2022-08-11T08:25:10;23.00;84.20
10678;DHT22;5387;48.722;9.110;2022-08-11T08:27:38;23.00;84.80
10678;DHT22;5387;48.722;9.110;2022-08-11T08:30:08;23.10;82.60
10678;DHT22;5387;48.722;9.110;2022-08-11T08:32:53;23.20;82.90
10678;DHT22;5387;48.722;9.110;2022-08-11T08:35:22;23.40;81.80
10678;DHT22;5387;48.722;9.110;2022-08-11T08:37:51;23.50;82.90
10678;DHT22;5387;48.722;9.110;2022-08-11T08:40:20;23.60;82.00
10678;DHT22;5387;48.722;9.110;2022-08-11T08:42:48;23.80;80.00
10678;DHT22;5387;48.722;9.110;2022-08-11T08:45:18;23.90;77.70
10678;DHT22;5387;48.722;9.110;2022-08-11T08:47:50;23.90;79.00
10678;DHT22;5387;48.722;9.110;2022-08-11T08:50:20;23.90;77.70
10678;DHT22;5387;48.722;9.110;2022-08-11T08:52:52;23.90;74.70
10678;DHT22;5387;48.722;9.110;2022-08-11T08:55:21;23.90;75.60
10678;DHT22;5387;48.722;9.110;2022-08-11T08:57:49;23.70;74.50
10678;DHT22;5387;48.722;9.110;2022-08-11T09:00:18;23.90;75.70
10678;DHT22;5387;48.722;9.110;2022-08-11T09:02:46;24.20;75.30
10678;DHT22;5387;48.722;9.110;2022-08-11T09:05:16;24.10;75.00
10678;DHT22;5387;48.722;9.110;2022-08-11T09:07:43;24.10;73.50
10678;DHT22;5387;48.722;9.110;2022-08-11T09:10:13;24.00;72.90
10678;DHT22;5387;48.722;9.110;2022-08-11T09:12:44;23.90;73.30
10678;DHT22;5387;48.722;9.110;2022-08-11T09:15:12;24.00;73.80
10678;DHT22;5387;48.722;9.110;2022-08-11T09:17:45;24.10;74.50
10678;DHT22;5387;48.722;9.110;2022-08-11T09:20:13;24.20;72.80
10678;DHT22;5387;48.722;9.110;2022-08-11T09:22:43;24.30;72.00
10678;DHT22;5387;48.722;9.110;2022-08-11T09:25:29;24.30;71.70
10678;DHT22;5387;48.722;9.110;2022-08-11T09:28:17;24.20;72.30
10678;DHT22;5387;48.722;9.110;2022-08-11T09:30:46;24.30;71.20
10678;DHT22;5387;48.722;9.110;2022-08-11T09:33:18;24.30;71.50
10678;DHT22;5387;48.722;9.110;2022-08-11T09:35:47;24.50;71.30
10678;DHT22;5387;48.722;9.110;2022-08-11T09:38:17;24.50;69.40
10678;DHT22;5387;48.722;9.110;2022-08-11T09:41:12;24.40;70.00
10678;DHT22;5387;48.722;9.110;2022-08-11T09:43:44;24.50;69.70
10678;DHT22;5387;48.722;9.110;2022-08-11T09:46:29;24.50;69.10
10678;DHT22;5387;48.722;9.110;2022-08-11T09:48:59;24.50;69.20
10678;DHT22;5387;48.722;9.110;2022-08-11T09:51:29;24.70;68.40
10678;DHT22;5387;48.722;9.110;2022-08-11T09:53:58;24.90;67.60
10678;DHT22;5387;48.722;9.110;2022-08-11T09:56:28;25.10;68.50
10678;DHT22;5387;48.722;9.110;2022-08-11T09:59:16;25.30;68.10
10678;DHT22;5387;48.722;9.110;2022-08-11T10:01:46;25.40;68.50
10678;DHT22;5387;48.722;9.110;2022-08-11T10:04:15;25.60;67.50
10678;DHT22;5387;48.722;9.110;2022-08-11T10:06:44;25.60;68.60
10678;DHT22;5387;48.722;9.110;2022-08-11T10:09:38;25.80;66.70
10678;DHT22;5387;48.722;9.110;2022-08-11T10:12:09;25.80;64.40
10678;DHT22;5387;48.722;9.110;2022-08-11T10:14:41;25.90;67.20
10678;DHT22;5387;48.722;9.110;2022-08-11T10:17:29;25.90;65.40
10678;DHT22;5387;48.722;9.110;2022-08-11T10:19:58;25.80;65.70
10678;DHT22;5387;48.722;9.110;2022-08-11T10:22:27;25.80;65.50
10678;DHT22;5387;48.722;9.110;2022-08-11T10:25:13;25.80;65.00
10678;DHT22;5387;48.722;9.110;2022-08-11T10:27:58;25.90;65.80
10678;DHT22;5387;48.722;9.110;2022-08-11T10:30:27;26.10;64.20
10678;DHT22;5387;48.722;9.110;2022-08-11T10:33:12;26.00;63.60
10678;DHT22;5387;48.722;9.110;2022-08-11T10:35:57;25.90;63.10
10678;DHT22;5387;48.722;9.110;2022-08-11T10:38:26;26.00;62.90
10678;DHT22;5387;48.722;9.110;2022-08-11T10:40:54;26.00;63.90
10678;DHT22;5387;48.722;9.110;2022-08-11T10:43:37;26.00;64.10
10678;DHT22;5387;48.722;9.110;2022-08-11T10:46:08;25.80;61.00
10678;DHT22;5387;48.722;9.110;2022-08-11T10:48:54;25.70;61.10
10678;DHT22;5387;48.722;9.110;2022-08-11T10:51:23;26.00;62.90
10678;DHT22;5387;48.722;9.110;2022-08-11T10:54:08;26.30;61.20
10678;DHT22;5387;48.722;9.110;2022-08-11T10:56:53;26.50;59.60
10678;DHT22;5387;48.722;9.110;2022-08-11T10:59:38;26.50;59.50
10678;DHT22;5387;48.722;9.110;2022-08-11T11:02:09;26.60;59.10
10678;DHT22;5387;48.722;9.110;2022-08-11T11:04:51;26.80;59.40
10678;DHT22;5387;48.722;9.110;2022-08-11T11:07:30;26.80;58.80
10678;DHT22;5387;48.722;9.110;2022-08-11T11:10:04;27.10;61.10
10678;DHT22;5387;48.722;9.110;2022-08-11T11:12:37;27.30;58.60
10678;DHT22;5387;48.722;9.110;2022-08-11T11:15:23;27.50;59.20
10678;DHT22;5387;48.722;9.110;2022-08-11T11:18:11;27.60;59.50
10678;DHT22;5387;48.722;9.110;2022-08-11T11:20:44;27.80;57.80
10678;DHT22;5387;48.722;9.110;2022-08-11T11:23:15;27.90;60.00
10678;DHT22;5387;48.722;9.110;2022-08-11T11:32:05;27.20;57.10
10678;DHT22;5387;48.722;9.110;2022-08-11T11:34:54;27.50;58.40
10678;DHT22;5387;48.722;9.110;2022-08-11T11:37:29;27.50;57.40
10678;DHT22;5387;48.722;9.110;2022-08-11T11:39:57;27.40;55.70
10678;DHT22;5387;48.722;9.110;2022-08-11T11:42:25;27.30;57.40
10678;DHT22;5387;48.722;9.110;2022-08-11T11:44:53;28.00;57.00
10678;DHT22;5387;48.722;9.110;2022-08-11T11:47:20;28.30;55.80
10678;DHT22;5387;48.722;9.110;2022-08-11T11:49:49;28.80;55.50
10678;DHT22;5387;48.722;9.110;2022-08-11T11:52:19;28.40;55.10
10678;DHT22;5387;48.722;9.110;2022-08-11T11:54:48;28.60;55.80
10678;DHT22;5387;48.722;9.110;2022-08-11T11:57:17;28.60;53.60
10678;DHT22;5387;48.722;9.110;2022-08-11T12:00:04;29.30;51.70
10678;DHT22;5387;48.722;9.110;2022-08-11T12:02:50;30.80;51.70
10678;DHT22;5387;48.722;9.110;2022-08-11T12:05:19;32.90;50.90
10678;DHT22;5387;48.722;9.110;2022-08-11T12:07:47;34.50;47.00
10678;DHT22;5387;48.722;9.110;2022-08-11T12:10:31;34.60;45.40
10678;DHT22;5387;48.722;9.110;2022-08-11T12:13:00;35.40;44.90
10678;DHT22;5387;48.722;9.110;2022-08-11T12:15:45;35.60;43.50
10678;DHT22;5387;48.722;9.110;2022-08-11T12:18:13;36.10;42.50
10678;DHT22;5387;48.722;9.110;2022-08-11T12:20:43;37.20;40.60
10678;DHT22;5387;48.722;9.110;2022-08-11T12:23:11;37.70;41.50
10678;DHT22;5387;48.722;9.110;2022-08-11T12:25:56;37.00;40.50
10678;DHT22;5387;48.722;9.110;2022-08-11T12:28:41;36.60;40.80
10678;DHT22;5387;48.722;9.110;2022-08-11T12:31:08;36.40;39.40
10678;DHT22;5387;48.722;9.110;2022-08-11T12:33:35;36.50;40.80
10678;DHT22;5387;48.722;9.110;2022-08-11T12:36:04;37.70;40.20
10678;DHT22;5387;48.722;9.110;2022-08-11T12:38:32;37.60;39.50
10678;DHT22;5387;48.722;9.110;2022-08-11T12:41:00;37.10;38.50
10678;DHT22;5387;48.722;9.110;2022-08-11T12:43:46;36.20;39.40
10678;DHT22;5387;48.722;9.110;2022-08-11T12:46:32;37.60;39.80
10678;DHT22;5387;48.722;9.110;2022-08-11T12:49:05;37.00;38.60
10678;DHT22;5387;48.722;9.110;2022-08-11T12:51:53;36.30;37.70
10678;DHT22;5387;48.722;9.110;2022-08-11T12:54:27;36.40;38.30
10678;DHT22;5387;48.722;9.110;2022-08-11T12:56:59;36.80;37.60
10678;DHT22;5387;48.722;9.110;2022-08-11T12:59:44;36.70;36.40
10678;DHT22;5387;48.722;9.110;2022-08-11T13:02:29;36.60;36.90
10678;DHT22;5387;48.722;9.110;2022-08-11T13:05:15;35.50;36.80
10678;DHT22;5387;48.722;9.110;2022-08-11T13:07:44;33.20;38.80
10678;DHT22;5387;48.722;9.110;2022-08-11T13:10:14;34.00;39.90
10678;DHT22;5387;48.722;9.110;2022-08-11T13:13:04;35.00;38.10
10678;DHT22;5387;48.722;9.110;2022-08-11T13:15:31;34.20;37.90
10678;DHT22;5387;48.722;9.110;2022-08-11T13:17:58;34.70;37.80
10678;DHT22;5387;48.722;9.110;2022-08-11T13:20:26;34.40;38.60
10678;DHT22;5387;48.722;9.110;2022-08-11T13:22:56;35.10;38.10
10678;DHT22;5387;48.722;9.110;2022-08-11T13:25:26;35.60;37.20
10678;DHT22;5387;48.722;9.110;2022-08-11T13:27:56;36.00;37.90
10678;DHT22;5387;48.722;9.110;2022-08-11T13:30:26;35.40;37.90
10678;DHT22;5387;48.722;9.110;2022-08-11T13:33:11;34.40;38.50
10678;DHT22;5387;48.722;9.110;2022-08-11T13:35:40;35.50;37.60
10678;DHT22;5387;48.722;9.110;2022-08-11T13:38:09;37.30;36.50
10678;DHT22;5387;48.722;9.110;2022-08-11T13:40:37;38.50;36.00
10678;DHT22;5387;48.722;9.110;2022-08-11T13:43:07;36.40;35.80
10678;DHT22;5387;48.722;9.110;2022-08-11T13:45:35;34.90;38.60
10678;DHT22;5387;48.722;9.110;2022-08-11T13:48:07;34.30;37.90
10678;DHT22;5387;48.722;9.110;2022-08-11T13:50:35;34.70;37.30
10678;DHT22;5387;48.722;9.110;2022-08-11T13:53:26;34.50;37.20
10678;DHT22;5387;48.722;9.110;2022-08-11T13:55:53;33.20;39.40
10678;DHT22;5387;48.722;9.110;2022-08-11T13:58:22;32.10;38.50
10678;DHT22;5387;48.722;9.110;2022-08-11T14:00:50;30.30;41.60
10678;DHT22;5387;48.722;9.110;2022-08-11T14:03:22;29.70;43.80
10678;DHT22;5387;48.722;9.110;2022-08-11T14:05:51;29.40;42.70
10678;DHT22;5387;48.722;9.110;2022-08-11T14:08:25;28.80;42.60
10678;DHT22;5387;48.722;9.110;2022-08-11T14:10:55;28.80;43.70
10678;DHT22;5387;48.722;9.110;2022-08-11T14:13:41;28.40;43.00
10678;DHT22;5387;48.722;9.110;2022-08-11T14:16:11;28.20;42.90
10678;DHT22;5387;48.722;9.110;2022-08-11T14:18:45;28.00;44.00
10678;DHT22;5387;48.722;9.110;2022-08-11T14:21:15;28.10;43.40
10678;DHT22;5387;48.722;9.110;2022-08-11T14:24:02;28.00;43.10
10678;DHT22;5387;48.722;9.110;2022-08-11T14:26:29;28.00;44.20
10678;DHT22;5387;48.722;9.110;2022-08-11T14:29:06;28.10;43.50
10678;DHT22;5387;48.722;9.110;2022-08-11T14:31:37;28.20;44.30
10678;DHT22;5387;48.722;9.110;2022-08-11T14:34:06;28.20;45.60
10678;DHT22;5387;48.722;9.110;2022-08-11T14:36:38;28.30;44.70
10678;DHT22;5387;48.722;9.110;2022-08-11T14:39:08;28.10;44.90
10678;DHT22;5387;48.722;9.110;2022-08-11T14:41:38;28.20;44.50
10678;DHT22;5387;48.722;9.110;2022-08-11T14:44:24;28.10;43.80
10678;DHT22;5387;48.722;9.110;2022-08-11T14:47:09;27.90;43.20
10678;DHT22;5387;48.722;9.110;2022-08-11T14:49:40;28.10;45.40
10678;DHT22;5387;48.722;9.110;2022-08-11T14:52:09;28.10;43.90
10678;DHT22;5387;48.722;9.110;2022-08-11T14:54:43;28.10;45.00
10678;DHT22;5387;48.722;9.110;2022-08-11T14:57:30;28.00;45.00
10678;DHT22;5387;48.722;9.110;2022-08-11T15:00:00;28.00;43.30
10678;DHT22;5387;48.722;9.110;2022-08-11T15:02:29;28.10;44.60
10678;DHT22;5387;48.722;9.110;2022-08-11T15:05:14;28.30;45.40
10678;DHT22;5387;48.722;9.110;2022-08-11T15:07:41;28.40;43.80
10678;DHT22;5387;48.722;9.110;2022-08-11T15:10:09;28.20;42.90
10678;DHT22;5387;48.722;9.110;2022-08-11T15:12:39;28.10;42.40
10678;DHT22;5387;48.722;9.110;2022-08-11T15:15:08;28.00;43.00
10678;DHT22;5387;48.722;9.110;2022-08-11T15:17:54;28.00;44.10
10678;DHT22;5387;48.722;9.110;2022-08-11T15:20:23;28.00;43.00
10678;DHT22;5387;48.722;9.110;2022-08-11T15:23:08;28.00;43.30
10678;DHT22;5387;48.722;9.110;2022-08-11T15:25:57;27.90;42.80
10678;DHT22;5387;48.722;9.110;2022-08-11T15:28:26;28.00;43.00
10678;DHT22;5387;48.722;9.110;2022-08-11T15:31:13;27.90;42.40
10678;DHT22;5387;48.722;9.110;2022-08-11T15:34:03;27.80;44.20
10678;DHT22;5387;48.722;9.110;2022-08-11T15:36:50;27.90;43.70
10678;DHT22;5387;48.722;9.110;2022-08-11T15:39:38;27.80;43.30
10678;DHT22;5387;48.722;9.110;2022-08-11T15:42:29;27.80;43.20
10678;DHT22;5387;48.722;9.110;2022-08-11T15:45:19;27.60;41.90
10678;DHT22;5387;48.722;9.110;2022-08-11T15:48:07;27.50;42.70
10678;DHT22;5387;48.722;9.110;2022-08-11T15:50:39;27.60;43.10
10678;DHT22;5387;48.722;9.110;2022-08-11T15:53:10;27.60;43.70
10678;DHT22;5387;48.722;9.110;2022-08-11T15:55:41;27.60;45.60
10678;DHT22;5387;48.722;9.110;2022-08-11T15:58:11;27.60;43.50
10678;DHT22;5387;48.722;9.110;2022-08-11T16:00:56;27.60;43.40
10678;DHT22;5387;48.722;9.110;2022-08-11T16:03:46;27.70;43.80
10678;DHT22;5387;48.722;9.110;2022-08-11T16:06:32;27.70;44.60
10678;DHT22;5387;48.722;9.110;2022-08-11T16:09:02;27.70;44.10
10678;DHT22;5387;48.722;9.110;2022-08-11T16:11:31;27.80;44.00
10678;DHT22;5387;48.722;9.110;2022-08-11T16:14:02;27.80;42.90
10678;DHT22;5387;48.722;9.110;2022-08-11T16:16:50;27.90;43.50
10678;DHT22;5387;48.722;9.110;2022-08-11T16:19:19;27.80;44.10
10678;DHT22;5387;48.722;9.110;2022-08-11T16:21:48;27.80;43.20
10678;DHT22;5387;48.722;9.110;2022-08-11T16:24:18;27.80;43.40
10678;DHT22;5387;48.722;9.110;2022-08-11T16:26:46;27.80;43.40
10678;DHT22;5387;48.722;9.110;2022-08-11T16:29:15;27.70;43.40
10678;DHT22;5387;48.722;9.110;2022-08-11T16:31:44;27.60;43.70
10678;DHT22;5387;48.722;9.110;2022-08-11T16:34:33;27.50;44.60
10678;DHT22;5387;48.722;9.110;2022-08-11T16:37:21;27.30;44.50
10678;DHT22;5387;48.722;9.110;2022-08-11T16:40:07;27.40;43.60
10678;DHT22;5387;48.722;9.110;2022-08-11T16:42:35;27.40;44.40
10678;DHT22;5387;48.722;9.110;2022-08-11T16:45:21;27.40;45.60
10678;DHT22;5387;48.722;9.110;2022-08-11T16:48:06;27.30;45.40
10678;DHT22;5387;48.722;9.110;2022-08-11T16:50:36;27.40;46.70
10678;DHT22;5387;48.722;9.110;2022-08-11T16:53:03;27.30;45.60
10678;DHT22;5387;48.722;9.110;2022-08-11T16:55:30;27.20;46.00
10678;DHT22;5387;48.722;9.110;2022-08-11T16:57:59;27.10;45.70
10678;DHT22;5387;48.722;9.110;2022-08-11T17:00:47;27.00;46.80
10678;DHT22;5387;48.722;9.110;2022-08-11T17:03:15;26.90;45.90
10678;DHT22;5387;48.722;9.110;2022-08-11T17:06:01;26.80;47.00
10678;DHT22;5387;48.722;9.110;2022-08-11T17:08:49;26.80;46.10
10678;DHT22;5387;48.722;9.110;2022-08-11T17:11:45;26.70;46.80
10678;DHT22;5387;48.722;9.110;2022-08-11T17:14:36;26.80;47.40
10678;DHT22;5387;48.722;9.110;2022-08-11T17:17:08;26.80;46.10
10678;DHT22;5387;48.722;9.110;2022-08-11T17:19:43;26.70;45.50
10678;DHT22;5387;48.722;9.110;2022-08-11T17:22:13;26.70;46.00
10678;DHT22;5387;48.722;9.110;2022-08-11T17:24:58;26.70;45.10
10678;DHT22;5387;48.722;9.110;2022-08-11T17:27:27;26.70;46.00
10678;DHT22;5387;48.722;9.110;2022-08-11T17:29:57;26.70;46.00
10678;DHT22;5387;48.722;9.110;2022-08-11T17:32:30;26.70;45.40
10678;DHT22;5387;48.722;9.110;2022-08-11T17:35:18;26.70;45.40
10678;DHT22;5387;48.722;9.110;2022-08-11T17:37:57;26.60;46.00
10678;DHT22;5387;48.722;9.110;2022-08-11T17:40:26;26.40;46.70
10678;DHT22;5387;48.722;9.110;2022-08-11T17:42:55;26.40;45.60
10678;DHT22;5387;48.722;9.110;2022-08-11T17:45:42;26.20;45.70
10678;DHT22;5387;48.722;9.110;2022-08-11T17:48:30;26.10;45.40
10678;DHT22;5387;48.722;9.110;2022-08-11T17:51:02;26.10;47.60
10678;DHT22;5387;48.722;9.110;2022-08-11T17:53:32;26.00;46.60